Time;durP1;ratioP1;P1;durP2;ratioP2;P2;SDS_P1;SDS_P2;PMS_P1;PMS_P2;Temp;Humidity;BMP_temperature;BMP_pressure;BME280_temperature;BME280_humidity;BME280_pressure;Samples;Min_cycle;Max_cycle;Signal;HPM_P1;HPM_P2
2022/11/08 00:02:15;;;;;;;4.40;1.70;;;13.10;99.90;;;;;;5081004;28;20489;-78
2022/11/08 00:04:42;;;;;;;9.43;2.57;;;13.10;99.90;;;;;;5081188;28;20482;-77
2022/11/08 00:15:24;;;;;;;6.67;1.90;;;13.00;99.90;;;;;;5068635;28;20432;-79
2022/11/08 00:17:51;;;;;;;6.20;1.60;;;12.90;99.90;;;;;;5067235;28;20483;-79
2022/11/08 00:20:18;;;;;;;7.17;2.13;;;12.90;99.90;;;;;;5081857;28;20453;-79
2022/11/08 00:22:45;;;;;;;6.63;1.70;;;12.90;99.90;;;;;;5088460;28;20495;-79
2022/11/08 00:25:12;;;;;;;7.33;2.20;;;12.90;99.90;;;;;;5093340;28;20524;-78
2022/11/08 00:27:38;;;;;;;3.33;1.73;;;12.90;99.90;;;;;;5095622;28;20869;-78
2022/11/08 00:30:06;;;;;;;6.10;1.60;;;12.80;99.90;;;;;;5081220;28;20441;-78
2022/11/08 00:32:34;;;;;;;3.70;1.93;;;12.90;99.90;;;;;;5073028;28;20876;-78
2022/11/08 00:35:01;;;;;;;4.47;1.50;;;12.80;99.90;;;;;;5074950;28;20515;-77
2022/11/08 00:37:28;;;;;;;8.00;1.97;;;12.70;99.90;;;;;;5064101;28;20518;-77
2022/11/08 00:39:55;;;;;;;6.27;1.80;;;12.80;99.90;;;;;;5070630;28;20891;-78
2022/11/08 00:42:22;;;;;;;6.03;2.60;;;12.70;99.90;;;;;;5080775;28;20484;-77
2022/11/08 00:44:48;;;;;;;6.07;2.10;;;12.80;99.90;;;;;;5081110;28;20454;-77
2022/11/08 00:47:15;;;;;;;6.37;2.60;;;12.80;99.90;;;;;;5080081;28;20453;-78
2022/11/08 00:49:43;;;;;;;3.97;1.60;;;12.80;99.90;;;;;;5077989;28;20529;-78
2022/11/08 00:52:10;;;;;;;4.20;1.80;;;12.90;99.90;;;;;;5080229;28;20477;-78
2022/11/08 00:54:37;;;;;;;6.07;1.80;;;12.90;99.90;;;;;;5080680;28;21000;-77
2022/11/08 00:57:04;;;;;;;5.47;2.10;;;12.90;99.90;;;;;;5080858;28;20543;-78
2022/11/08 00:59:30;;;;;;;7.30;1.90;;;13.00;99.90;;;;;;5067839;28;20550;-77
2022/11/08 01:01:57;;;;;;;11.00;2.50;;;13.00;99.90;;;;;;5060371;28;20946;-79
2022/11/08 01:04:24;;;;;;;5.07;2.07;;;13.00;99.90;;;;;;5060949;28;20550;-77
2022/11/08 01:06:52;;;;;;;6.27;2.17;;;13.00;99.90;;;;;;5061393;28;20538;-78
2022/11/08 01:09:19;;;;;;;5.73;2.07;;;13.10;99.90;;;;;;5078854;28;20483;-78
2022/11/08 01:11:46;;;;;;;6.60;2.20;;;13.10;99.90;;;;;;5079942;28;20538;-77
2022/11/08 01:14:14;;;;;;;4.77;2.20;;;13.20;99.90;;;;;;5079716;28;20479;-78
2022/11/08 01:16:41;;;;;;;9.10;2.10;;;13.30;99.90;;;;;;5080740;28;20518;-78
2022/11/08 01:19:09;;;;;;;3.63;1.70;;;13.30;99.90;;;;;;5078317;28;20477;-77
2022/11/08 01:21:36;;;;;;;5.67;1.90;;;13.50;99.90;;;;;;5079912;28;20496;-78
2022/11/08 01:24:05;;;;;;;4.80;1.80;;;13.50;99.90;;;;;;5080443;28;20973;-77
2022/11/08 01:26:32;;;;;;;5.30;1.60;;;13.50;99.90;;;;;;5080326;28;20448;-78
2022/11/08 01:28:59;;;;;;;12.10;2.20;;;13.50;99.90;;;;;;5060867;28;20451;-78
2022/11/08 01:31:28;;;;;;;3.60;1.40;;;13.50;99.90;;;;;;5059860;28;20555;-78
2022/11/08 01:33:56;;;;;;;3.20;1.23;;;13.50;99.90;;;;;;5059705;28;20458;-77
2022/11/08 01:36:25;;;;;;;5.00;2.10;;;13.40;99.90;;;;;;5059966;28;20535;-77
2022/11/08 01:38:53;;;;;;;4.40;1.90;;;13.50;99.90;;;;;;5075536;28;20451;-78
2022/11/08 01:41:23;;;;;;;5.30;2.07;;;13.40;99.90;;;;;;5089445;28;20566;-77
2022/11/08 01:43:50;;;;;;;4.20;1.50;;;13.50;99.90;;;;;;5099887;28;20451;-78
2022/11/08 01:46:35;;;;;;;3.90;1.47;;;13.50;99.90;;;;;;5100647;28;20450;-77
2022/11/08 01:49:44;;;;;;;5.60;1.77;;;13.50;99.90;;;;;;5079926;28;20558;-77
2022/11/08 01:52:18;;;;;;;3.30;1.70;;;13.50;99.90;;;;;;5079879;28;20930;-78
2022/11/08 01:54:55;;;;;;;3.20;1.10;;;13.60;99.90;;;;;;5079628;28;20537;-77
2022/11/08 01:57:28;;;;;;;5.03;2.00;;;13.70;99.90;;;;;;5075210;28;20808;-77
2022/11/08 01:59:57;;;;;;;4.40;1.60;;;13.60;99.90;;;;;;5059101;28;20484;-77
2022/11/08 02:02:24;;;;;;;4.23;1.67;;;13.60;99.90;;;;;;5059552;28;20559;-77
2022/11/08 02:04:51;;;;;;;5.23;1.83;;;13.60;99.90;;;;;;5060274;28;20542;-78
2022/11/08 02:07:18;;;;;;;3.47;1.50;;;13.70;99.90;;;;;;5062598;28;20894;-77
2022/11/08 02:09:47;;;;;;;3.97;1.63;;;13.60;99.90;;;;;;5078882;28;20458;-77
2022/11/08 02:12:15;;;;;;;6.50;1.90;;;13.60;99.90;;;;;;5079237;28;20476;-77
2022/11/08 02:14:43;;;;;;;4.33;1.80;;;13.70;99.90;;;;;;5081140;28;20450;-78
2022/11/08 02:17:11;;;;;;;4.97;1.60;;;13.70;99.90;;;;;;5080072;28;20450;-77
2022/11/08 02:19:41;;;;;;;3.87;1.43;;;13.70;99.90;;;;;;5062025;28;20451;-78
2022/11/08 02:22:18;;;;;;;7.70;2.50;;;13.80;99.90;;;;;;5064120;28;20581;-78
2022/11/08 02:24:46;;;;;;;4.83;1.60;;;13.80;99.90;;;;;;5072901;28;20455;-77
2022/11/08 02:27:14;;;;;;;8.17;1.43;;;13.80;99.90;;;;;;5083448;28;20554;-77
2022/11/08 02:29:41;;;;;;;3.97;1.63;;;13.90;99.90;;;;;;5085377;28;20446;-79
2022/11/08 02:32:08;;;;;;;3.47;1.23;;;13.90;99.90;;;;;;5088956;28;20535;-78
2022/11/08 02:34:40;;;;;;;8.40;1.80;;;13.90;99.90;;;;;;5081397;28;20457;-79
2022/11/08 02:37:07;;;;;;;4.13;1.60;;;13.90;99.90;;;;;;5070681;28;20445;-79
2022/11/08 02:39:34;;;;;;;3.67;1.30;;;13.90;99.90;;;;;;5068763;28;20924;-79
2022/11/08 02:42:03;;;;;;;7.20;1.60;;;13.90;99.90;;;;;;5073085;28;20560;-78
2022/11/08 02:44:30;;;;;;;8.23;1.90;;;13.90;99.90;;;;;;5082955;28;20494;-79
2022/11/08 02:46:57;;;;;;;3.17;1.50;;;13.80;99.90;;;;;;5083407;28;20447;-78
2022/11/08 02:49:23;;;;;;;3.97;1.60;;;13.80;99.90;;;;;;5081069;28;20451;-77
2022/11/08 02:51:53;;;;;;;3.00;1.87;;;13.80;99.90;;;;;;5082961;28;20525;-77
2022/11/08 02:54:20;;;;;;;3.50;1.23;;;13.70;99.90;;;;;;5077063;28;20534;-77
2022/11/08 02:56:46;;;;;;;4.70;1.30;;;13.60;99.90;;;;;;5063145;28;20971;-77
2022/11/08 02:59:15;;;;;;;2.63;1.10;;;13.50;99.90;;;;;;5061896;28;20463;-78
2022/11/08 03:01:42;;;;;;;2.93;1.00;;;13.30;99.90;;;;;;5062720;28;20488;-78
2022/11/08 03:04:08;;;;;;;4.07;1.60;;;13.30;99.90;;;;;;5066526;28;20947;-78
2022/11/08 03:06:35;;;;;;;5.23;1.63;;;13.30;99.90;;;;;;5083228;28;20516;-77
2022/11/08 03:09:02;;;;;;;4.40;1.20;;;13.30;99.90;;;;;;5083228;28;20454;-77
2022/11/08 03:11:29;;;;;;;6.30;1.93;;;13.30;99.90;;;;;;5082771;28;20551;-77
2022/11/08 03:13:56;;;;;;;3.77;1.40;;;13.20;99.90;;;;;;5081261;28;20455;-78
2022/11/08 03:16:24;;;;;;;5.63;1.43;;;13.20;99.90;;;;;;5062502;28;20447;-78
2022/11/08 03:18:51;;;;;;;3.47;1.33;;;13.10;99.90;;;;;;5074963;28;20454;-77
2022/11/08 03:21:18;;;;;;;5.07;1.13;;;13.00;99.90;;;;;;5081955;28;20912;-77
2022/11/08 03:23:45;;;;;;;5.10;1.57;;;13.00;99.90;;;;;;5081569;28;20445;-77
2022/11/08 03:26:12;;;;;;;5.23;1.40;;;13.00;99.90;;;;;;5077777;28;20450;-77
2022/11/08 03:28:39;;;;;;;3.90;1.50;;;12.90;99.90;;;;;;5081259;28;20527;-77
2022/11/08 03:31:06;;;;;;;2.43;1.40;;;12.90;99.90;;;;;;5082863;28;20473;-77
2022/11/08 03:33:34;;;;;;;3.60;1.50;;;12.90;99.90;;;;;;5082859;28;20446;-77
2022/11/08 03:36:01;;;;;;;3.57;1.20;;;12.80;99.90;;;;;;5081252;28;20546;-77
2022/11/08 03:38:27;;;;;;;3.40;1.83;;;12.80;99.90;;;;;;5081440;28;20448;-77
2022/11/08 03:40:54;;;;;;;4.90;1.40;;;12.70;99.90;;;;;;5082376;28;20482;-77
2022/11/08 03:43:21;;;;;;;4.23;1.47;;;12.60;99.90;;;;;;5082928;28;20488;-77
2022/11/08 03:45:48;;;;;;;3.47;1.47;;;12.50;99.90;;;;;;5082228;28;20456;-77
2022/11/08 03:48:14;;;;;;;4.30;1.37;;;12.50;99.90;;;;;;5084029;28;20516;-79
2022/11/08 03:50:43;;;;;;;2.83;1.40;;;12.40;99.90;;;;;;5086059;28;20470;-78
2022/11/08 03:53:09;;;;;;;3.33;1.40;;;12.40;99.90;;;;;;5087594;28;20535;-79
2022/11/08 03:55:38;;;;;;;4.57;1.90;;;12.30;99.90;;;;;;5072556;28;20477;-78
2022/11/08 03:58:05;;;;;;;3.50;1.60;;;12.30;99.90;;;;;;5066626;28;20447;-78
2022/11/08 04:00:32;;;;;;;5.37;1.70;;;12.30;99.90;;;;;;5066793;28;20502;-79
2022/11/08 04:03:03;;;;;;;3.37;1.63;;;12.20;99.90;;;;;;5067992;28;20554;-79
2022/11/08 04:05:31;;;;;;;2.80;1.40;;;12.10;99.90;;;;;;5069012;28;20540;-79
2022/11/08 04:08:00;;;;;;;4.23;1.40;;;12.20;99.90;;;;;;5070093;28;20458;-77
2022/11/08 04:10:27;;;;;;;3.70;1.20;;;12.10;99.90;;;;;;5071119;28;20512;-77
2022/11/08 04:15:39;;;;;;;3.80;1.17;;;12.10;99.90;;;;;;5073573;28;20450;-77
2022/11/08 04:23:37;;;;;;;3.30;1.23;;;12.00;99.90;;;;;;5067813;28;21220;-79
2022/11/08 04:26:06;;;;;;;2.30;1.10;;;12.00;99.90;;;;;;5084877;28;20515;-79
2022/11/08 04:28:35;;;;;;;7.03;2.00;;;11.90;99.90;;;;;;5086349;28;20510;-79
2022/11/08 04:31:04;;;;;;;5.23;1.50;;;11.90;99.90;;;;;;5085537;28;20490;-79
2022/11/08 04:33:31;;;;;;;3.40;1.70;;;11.90;99.90;;;;;;5087820;28;20526;-78
2022/11/08 04:36:02;;;;;;;9.70;2.10;;;11.90;99.90;;;;;;5075399;28;20524;-79
2022/11/08 04:38:30;;;;;;;4.47;1.70;;;11.90;99.90;;;;;;5084790;28;20444;-79
2022/11/08 04:41:02;;;;;;;5.77;1.60;;;11.90;99.90;;;;;;5087207;28;20468;-79
2022/11/08 04:43:29;;;;;;;2.83;1.50;;;11.90;99.90;;;;;;5085784;28;20510;-79
2022/11/08 04:45:59;;;;;;;3.40;1.70;;;11.90;99.90;;;;;;5070909;28;20519;-78
2022/11/08 04:48:26;;;;;;;3.60;1.43;;;11.90;99.90;;;;;;5067356;28;20449;-79
2022/11/08 04:50:53;;;;;;;3.07;1.60;;;11.90;99.90;;;;;;5070181;28;20472;-79
2022/11/08 04:53:20;;;;;;;5.27;1.70;;;11.90;99.90;;;;;;5074175;28;20556;-78
2022/11/08 04:55:46;;;;;;;3.60;1.10;;;11.90;99.90;;;;;;5080371;28;20521;-78
2022/11/08 04:58:15;;;;;;;3.70;1.40;;;11.90;99.90;;;;;;5085061;28;20516;-78
2022/11/08 05:00:41;;;;;;;3.60;1.53;;;11.90;99.90;;;;;;5085077;28;20565;-77
2022/11/08 05:03:08;;;;;;;4.37;1.37;;;11.90;99.90;;;;;;5083183;28;20487;-77
2022/11/08 05:05:35;;;;;;;2.97;1.60;;;11.80;99.90;;;;;;5068434;28;20545;-77
2022/11/08 05:08:02;;;;;;;3.33;1.33;;;11.80;99.90;;;;;;5060168;28;20889;-77
2022/11/08 05:10:28;;;;;;;4.17;1.37;;;11.80;99.90;;;;;;5061131;28;20540;-77
2022/11/08 05:12:56;;;;;;;3.97;1.67;;;11.80;99.90;;;;;;5067305;22;20499;-81
2022/11/08 05:15:25;;;;;;;2.73;1.33;;;11.80;99.90;;;;;;5047974;28;20452;-80
2022/11/08 05:17:51;;;;;;;3.10;1.50;;;11.70;99.90;;;;;;5043980;28;21008;-81
2022/11/08 05:25:48;;;;;;;4.97;1.37;;;11.60;99.90;;;;;;5026459;28;20470;-80
2022/11/08 05:28:15;;;;;;;2.80;1.50;;;11.60;99.90;;;;;;5027037;28;20478;-81
2022/11/08 05:30:43;;;;;;;3.77;1.77;;;11.60;99.90;;;;;;5028577;28;21034;-80
2022/11/08 05:33:12;;;;;;;3.83;1.30;;;11.50;99.90;;;;;;5044793;28;20472;-81
2022/11/08 05:35:39;;;;;;;3.30;1.50;;;11.50;99.90;;;;;;5048003;28;20445;-81
2022/11/08 05:38:06;;;;;;;4.10;1.60;;;11.60;99.90;;;;;;5044332;28;20509;-80
2022/11/08 05:40:34;;;;;;;5.80;1.43;;;11.50;99.90;;;;;;5047749;28;20455;-81
2022/11/08 05:43:01;;;;;;;4.10;1.73;;;11.50;99.90;;;;;;5033195;28;20482;-81
2022/11/08 05:45:27;;;;;;;3.23;1.37;;;11.50;99.90;;;;;;5028798;28;20450;-81
2022/11/08 05:47:56;;;;;;;2.53;1.20;;;11.50;99.90;;;;;;5028024;28;20481;-80
2022/11/08 05:50:23;;;;;;;4.20;2.00;;;11.50;99.90;;;;;;5027787;28;20459;-82
2022/11/08 05:52:53;;;;;;;6.47;2.00;;;11.40;99.90;;;;;;5040219;28;20567;-81
2022/11/08 05:55:20;;;;;;;4.10;1.60;;;11.40;99.90;;;;;;5047597;28;20528;-81
2022/11/08 05:57:49;;;;;;;3.40;1.57;;;11.40;99.90;;;;;;5047460;28;20457;-80
2022/11/08 06:00:16;;;;;;;6.03;1.60;;;11.30;99.90;;;;;;5046581;28;20457;-81
2022/11/08 06:02:43;;;;;;;5.30;2.33;;;11.30;99.90;;;;;;5033779;28;20570;-80
2022/11/08 06:05:12;;;;;;;7.93;1.83;;;11.40;99.90;;;;;;5025632;28;20471;-80
2022/11/08 06:07:39;;;;;;;4.23;2.03;;;11.20;99.90;;;;;;5026025;28;20892;-81
2022/11/08 06:10:07;;;;;;;3.00;1.80;;;11.20;99.90;;;;;;5025606;28;20508;-79
2022/11/08 06:12:33;;;;;;;4.87;2.00;;;11.30;99.90;;;;;;5035203;28;20579;-82
2022/11/08 06:15:00;;;;;;;6.30;2.40;;;11.30;99.90;;;;;;5029115;28;20511;-81
2022/11/08 06:17:28;;;;;;;3.80;1.60;;;11.30;99.90;;;;;;5026197;28;20543;-81
2022/11/08 06:19:55;;;;;;;3.67;1.80;;;11.30;99.90;;;;;;5024551;28;20473;-79
2022/11/08 06:22:23;;;;;;;4.10;1.63;;;11.30;99.90;;;;;;5032558;28;20466;-80
2022/11/08 06:24:50;;;;;;;3.60;1.50;;;11.40;99.90;;;;;;5044560;28;20473;-81
2022/11/08 06:27:16;;;;;;;5.20;2.50;;;11.40;99.90;;;;;;5044606;28;20533;-81
2022/11/08 06:29:43;;;;;;;2.47;1.30;;;11.40;99.90;;;;;;5044488;28;20514;-80
2022/11/08 06:32:10;;;;;;;4.77;1.70;;;11.40;99.90;;;;;;5038926;28;20534;-80
2022/11/08 06:34:37;;;;;;;4.20;1.90;;;11.50;99.90;;;;;;5027218;28;20493;-81
2022/11/08 06:37:04;;;;;;;3.53;1.50;;;11.50;99.90;;;;;;5025416;28;20475;-81
2022/11/08 06:39:33;;;;;;;4.00;2.07;;;11.40;99.90;;;;;;5023021;28;20446;-78
2022/11/08 06:42:00;;;;;;;2.67;1.50;;;11.50;99.90;;;;;;5029513;28;20536;-81
2022/11/08 06:44:27;;;;;;;4.30;1.60;;;11.50;99.90;;;;;;5039770;28;20488;-79
2022/11/08 06:46:55;;;;;;;3.77;1.83;;;11.50;99.90;;;;;;5043569;28;20525;-80
2022/11/08 06:49:22;;;;;;;4.37;1.40;;;11.50;99.90;;;;;;5044240;28;20463;-81
2022/11/08 06:51:49;;;;;;;2.50;1.37;;;11.60;99.90;;;;;;5040611;28;20474;-81
2022/11/08 06:54:16;;;;;;;4.00;1.77;;;11.50;99.90;;;;;;5023113;28;20967;-81
2022/11/08 06:56:44;;;;;;;4.27;1.40;;;11.60;99.90;;;;;;5023332;28;20478;-81
2022/11/08 06:59:11;;;;;;;3.70;1.13;;;11.70;99.90;;;;;;5024658;28;20523;-82
2022/11/08 07:01:38;;;;;;;4.03;1.37;;;11.90;99.90;;;;;;5027749;28;20503;-82
2022/11/08 07:04:05;;;;;;;4.13;1.40;;;12.00;99.90;;;;;;5029091;28;20568;-82
2022/11/08 07:06:33;;;;;;;3.07;1.10;;;12.10;99.90;;;;;;5027080;28;20550;-82
2022/11/08 07:08:59;;;;;;;2.93;1.23;;;12.30;99.90;;;;;;5042832;28;20445;-80
2022/11/08 07:11:26;;;;;;;5.60;1.33;;;12.30;99.90;;;;;;5043737;28;20449;-81
2022/11/08 07:13:54;;;;;;;4.70;1.43;;;12.40;99.90;;;;;;5040880;28;20457;-82
2022/11/08 07:16:21;;;;;;;2.33;1.10;;;12.50;99.90;;;;;;5042855;28;20546;-81
2022/11/08 07:18:50;;;;;;;3.23;1.30;;;12.60;99.90;;;;;;5041082;28;20542;-81
2022/11/08 07:21:17;;;;;;;3.53;1.43;;;12.70;99.90;;;;;;5042404;28;20833;-79
2022/11/08 07:23:44;;;;;;;4.17;1.30;;;12.80;99.90;;;;;;5043667;28;20483;-82
2022/11/08 07:26:12;;;;;;;4.00;1.40;;;12.90;99.90;;;;;;5043577;28;20444;-81
2022/11/08 07:28:38;;;;;;;4.20;1.00;;;13.00;99.90;;;;;;5037930;28;20463;-80
2022/11/08 07:31:08;;;;;;;4.27;1.10;;;13.00;99.90;;;;;;5042171;28;20486;-81
2022/11/08 07:33:35;;;;;;;2.23;1.10;;;13.00;99.90;;;;;;5036990;28;20486;-80
2022/11/08 07:36:03;;;;;;;3.73;1.23;;;13.00;99.90;;;;;;5041348;28;20840;-81
2022/11/08 07:38:30;;;;;;;3.73;1.27;;;13.10;99.90;;;;;;5038792;28;20457;-80
2022/11/08 07:40:57;;;;;;;1.83;1.20;;;13.10;99.90;;;;;;5042540;28;21076;-83
2022/11/08 07:43:25;;;;;;;3.50;1.40;;;13.20;99.90;;;;;;5042508;28;20496;-80
2022/11/08 07:45:55;;;;;;;3.00;1.63;;;13.20;99.90;;;;;;5042494;28;20457;-80
2022/11/08 07:48:24;;;;;;;1.70;1.10;;;13.30;99.90;;;;;;5040474;28;20456;-81
2022/11/08 07:50:50;;;;;;;3.40;1.30;;;13.30;99.90;;;;;;5027190;28;20567;-82
2022/11/08 07:53:17;;;;;;;2.57;1.43;;;13.40;99.90;;;;;;5042404;28;20566;-81
2022/11/08 07:55:46;;;;;;;2.27;1.20;;;13.40;99.90;;;;;;5043011;28;20886;-80
2022/11/08 07:58:14;;;;;;;3.10;1.37;;;13.40;99.90;;;;;;5042891;28;20442;-83
2022/11/08 08:00:42;;;;;;;3.77;1.13;;;13.40;99.90;;;;;;5043766;28;20491;-83
2022/11/08 08:03:11;;;;;;;3.10;1.67;;;13.50;99.90;;;;;;5043254;28;20489;-82
2022/11/08 08:05:41;;;;;;;4.03;1.27;;;13.50;99.90;;;;;;5045714;28;20483;-82
2022/11/08 08:08:09;;;;;;;3.00;0.90;;;13.60;99.90;;;;;;5028467;28;20730;-81
2022/11/08 08:10:36;;;;;;;2.50;1.20;;;13.60;99.90;;;;;;5033388;28;20540;-82
2022/11/08 08:13:05;;;;;;;3.37;1.60;;;13.70;99.90;;;;;;5041392;28;20510;-85
2022/11/08 08:15:32;;;;;;;2.70;1.13;;;13.80;99.90;;;;;;5047455;28;20479;-83
2022/11/08 08:18:00;;;;;;;5.63;1.37;;;13.80;99.90;;;;;;5048118;28;20481;-83
2022/11/08 08:20:27;;;;;;;3.83;1.40;;;13.90;99.90;;;;;;5049232;28;20840;-82
2022/11/08 08:22:56;;;;;;;7.03;1.23;;;14.00;99.90;;;;;;5050196;28;21044;-81
2022/11/08 08:25:23;;;;;;;2.57;1.67;;;14.10;99.90;;;;;;5050911;28;20472;-83
2022/11/08 08:27:50;;;;;;;2.47;1.30;;;14.10;99.90;;;;;;5049637;28;20464;-80
2022/11/08 08:30:18;;;;;;;3.77;1.60;;;14.20;99.90;;;;;;5048502;28;20517;-82
2022/11/08 08:32:46;;;;;;;2.60;1.10;;;14.30;99.90;;;;;;5048590;28;20532;-82
2022/11/08 08:35:13;;;;;;;2.00;1.17;;;14.40;99.90;;;;;;5049898;28;20488;-84
2022/11/08 08:37:40;;;;;;;2.17;1.03;;;14.40;99.90;;;;;;5049952;28;20520;-82
2022/11/08 08:40:10;;;;;;;8.70;1.20;;;14.50;99.90;;;;;;5046743;28;20496;-82
2022/11/08 08:42:36;;;;;;;3.80;1.30;;;14.60;99.90;;;;;;5028751;28;20483;-84
2022/11/08 08:45:04;;;;;;;3.30;1.00;;;14.70;99.90;;;;;;5046464;28;20533;-81
2022/11/08 08:47:31;;;;;;;3.37;1.10;;;14.70;99.90;;;;;;5047117;28;20478;-81
2022/11/08 08:49:57;;;;;;;4.33;1.13;;;14.80;99.90;;;;;;5044166;28;21041;-82
2022/11/08 08:52:24;;;;;;;3.70;1.20;;;14.80;99.90;;;;;;5040407;28;20563;-82
2022/11/08 08:54:51;;;;;;;2.37;1.10;;;14.90;99.90;;;;;;5023488;28;20540;-82
2022/11/08 08:57:19;;;;;;;2.43;1.20;;;14.90;99.90;;;;;;5023827;28;20522;-80
2022/11/08 08:59:46;;;;;;;4.20;1.20;;;14.90;99.90;;;;;;5022915;28;20450;-80
2022/11/08 09:02:13;;;;;;;4.60;1.27;;;14.90;99.90;;;;;;5024205;28;20561;-81
2022/11/08 09:04:40;;;;;;;3.13;1.30;;;15.00;99.90;;;;;;5031191;28;20829;-82
2022/11/08 09:07:07;;;;;;;3.03;1.23;;;15.00;99.90;;;;;;5043459;28;20450;-79
2022/11/08 09:09:35;;;;;;;3.60;1.40;;;15.00;99.90;;;;;;5041822;28;20525;-84
2022/11/08 09:12:02;;;;;;;4.93;1.73;;;15.10;99.90;;;;;;5043705;28;20493;-84
2022/11/08 09:14:30;;;;;;;2.97;1.30;;;15.10;99.90;;;;;;5044730;28;20522;-82
2022/11/08 09:16:57;;;;;;;2.53;1.00;;;15.10;99.90;;;;;;5045020;28;20448;-81
2022/11/08 09:19:24;;;;;;;2.90;1.23;;;15.10;99.90;;;;;;5042779;28;20457;-85
2022/11/08 09:21:51;;;;;;;2.50;1.27;;;15.10;99.90;;;;;;5044036;28;20540;-80
2022/11/08 09:24:18;;;;;;;2.80;0.90;;;15.20;99.90;;;;;;5042466;28;20568;-79
2022/11/08 09:26:45;;;;;;;3.20;1.20;;;15.30;99.90;;;;;;5042264;28;20521;-84
2022/11/08 09:29:12;;;;;;;5.20;1.37;;;15.40;99.90;;;;;;5043595;28;20462;-82
2022/11/08 09:31:40;;;;;;;2.97;1.60;;;15.50;99.90;;;;;;5041407;28;20566;-83
2022/11/08 09:34:07;;;;;;;3.60;1.10;;;15.50;99.90;;;;;;5044494;28;20536;-82
2022/11/08 09:36:33;;;;;;;3.50;2.03;;;15.50;99.90;;;;;;5044079;28;20480;-82
2022/11/08 09:39:00;;;;;;;3.73;1.20;;;15.60;99.90;;;;;;5042758;28;20491;-81
2022/11/08 09:41:43;;;;;;;4.53;1.20;;;15.60;99.90;;;;;;5041207;28;20533;-82
2022/11/08 09:44:22;;;;;;;4.20;1.30;;;15.70;99.90;;;;;;5040152;28;20468;-81
2022/11/08 09:46:53;;;;;;;3.13;1.10;;;15.80;99.90;;;;;;5039878;28;20538;-81
2022/11/08 09:49:24;;;;;;;3.13;1.10;;;15.80;99.90;;;;;;5039310;28;20450;-80
2022/11/08 09:51:51;;;;;;;3.57;1.50;;;15.90;99.90;;;;;;5040030;28;20507;-81
2022/11/08 09:54:22;;;;;;;3.83;1.23;;;15.90;99.90;;;;;;5039844;28;20480;-80
2022/11/08 09:56:51;;;;;;;2.53;1.10;;;15.90;99.90;;;;;;5040589;28;20461;-81
2022/11/08 09:59:28;;;;;;;6.63;1.80;;;16.00;99.90;;;;;;5040372;28;20467;-82
2022/11/08 10:01:56;;;;;;;4.03;1.37;;;16.10;99.90;;;;;;5040308;28;20547;-80
2022/11/08 10:04:26;;;;;;;3.63;1.20;;;16.10;99.90;;;;;;5038084;28;20986;-80
2022/11/08 10:07:13;;;;;;;4.53;1.63;;;16.10;99.90;;;;;;5020951;28;20517;-81
2022/11/08 10:10:02;;;;;;;3.40;1.30;;;16.10;99.90;;;;;;5019948;28;20535;-81
2022/11/08 10:12:34;;;;;;;5.93;1.53;;;16.10;99.90;;;;;;5021264;28;20484;-82
2022/11/08 10:15:15;;;;;;;2.00;1.00;;;16.20;99.90;;;;;;5020673;28;20544;-82
2022/11/08 10:18:12;;;;;;;5.47;2.03;;;16.20;99.90;;;;;;5020637;28;20434;-80
2022/11/08 10:20:52;;;;;;;3.37;1.57;;;16.10;99.90;;;;;;5023805;28;20541;-80
2022/11/08 10:23:21;;;;;;;2.43;1.00;;;16.10;99.90;;;;;;5041293;28;20506;-80
2022/11/08 10:25:54;;;;;;;3.03;1.50;;;16.10;99.90;;;;;;5041344;28;20453;-80
2022/11/08 10:28:24;;;;;;;3.93;1.20;;;16.10;99.90;;;;;;5040030;28;20467;-82
2022/11/08 10:30:53;;;;;;;3.00;1.37;;;16.10;99.90;;;;;;5041773;28;20534;-82
2022/11/08 10:33:24;;;;;;;3.83;1.97;;;16.20;99.90;;;;;;5041100;28;20544;-84
2022/11/08 10:35:58;;;;;;;7.57;1.50;;;16.10;99.90;;;;;;5042418;28;20445;-82
2022/11/08 10:38:29;;;;;;;3.00;1.33;;;16.20;99.90;;;;;;5042468;28;20470;-82
2022/11/08 10:41:00;;;;;;;2.30;1.40;;;16.10;99.90;;;;;;5043915;28;20468;-83
2022/11/08 10:43:36;;;;;;;2.80;1.30;;;16.20;99.90;;;;;;5043342;28;20513;-83
2022/11/08 10:46:04;;;;;;;2.07;1.23;;;16.30;99.90;;;;;;5042988;28;20451;-83
2022/11/08 10:48:39;;;;;;;3.13;1.47;;;16.30;99.90;;;;;;5043414;28;20519;-81
2022/11/08 10:51:06;;;;;;;2.50;1.40;;;16.20;99.90;;;;;;5043339;28;20647;-83
2022/11/08 10:53:33;;;;;;;2.07;1.23;;;16.20;99.90;;;;;;5041957;28;20553;-82
2022/11/08 10:56:03;;;;;;;2.83;1.60;;;16.30;99.90;;;;;;5043343;28;20462;-83
2022/11/08 10:58:32;;;;;;;2.67;1.30;;;16.20;99.90;;;;;;5042925;28;20452;-83
2022/11/08 11:01:01;;;;;;;5.17;1.70;;;16.10;99.90;;;;;;5043604;28;20511;-83
2022/11/08 11:03:29;;;;;;;3.20;1.33;;;16.20;99.90;;;;;;5043300;28;20490;-83
2022/11/08 11:05:59;;;;;;;3.40;1.30;;;16.10;99.90;;;;;;5043236;28;20487;-81
2022/11/08 11:08:26;;;;;;;2.90;1.40;;;16.20;99.90;;;;;;5042451;28;21125;-83
2022/11/08 11:10:54;;;;;;;3.83;1.60;;;16.20;99.90;;;;;;5040842;28;20555;-82
2022/11/08 11:13:22;;;;;;;4.90;1.80;;;16.20;99.90;;;;;;5071487;22;21006;-77
2022/11/08 11:15:58;;;;;;;3.03;1.80;;;16.10;99.90;;;;;;5061214;28;20554;-77
2022/11/08 11:18:28;;;;;;;4.83;2.10;;;16.10;99.90;;;;;;5060508;28;20530;-78
2022/11/08 11:21:02;;;;;;;4.43;2.63;;;16.10;99.90;;;;;;5058146;28;20450;-78
2022/11/08 11:23:37;;;;;;;4.53;1.97;;;16.10;99.90;;;;;;5069251;28;20546;-79
2022/11/08 11:26:05;;;;;;;4.70;1.57;;;16.20;99.90;;;;;;5068047;28;20474;-79
2022/11/08 11:28:34;;;;;;;3.83;1.30;;;16.20;99.90;;;;;;5064509;28;20543;-78
2022/11/08 11:31:04;;;;;;;3.33;1.30;;;16.20;99.90;;;;;;5068967;28;20498;-78
2022/11/08 11:33:32;;;;;;;5.40;1.60;;;16.30;99.90;;;;;;5077405;28;20530;-78
2022/11/08 11:36:07;;;;;;;2.97;1.40;;;16.40;99.90;;;;;;5075690;28;20452;-78
2022/11/08 11:38:43;;;;;;;5.43;1.47;;;16.50;99.90;;;;;;5067303;28;20937;-78
2022/11/08 11:41:17;;;;;;;3.30;1.40;;;16.80;99.90;;;;;;5062473;28;20438;-77
2022/11/08 11:43:48;;;;;;;3.77;1.70;;;17.20;99.90;;;;;;5051642;28;20907;-77
2022/11/08 11:46:21;;;;;;;7.30;1.57;;;17.70;99.90;;;;;;5044036;28;20456;-77
2022/11/08 11:48:55;;;;;;;3.90;1.63;;;18.10;99.90;;;;;;5042981;28;20936;-77
2022/11/08 11:51:28;;;;;;;3.00;1.23;;;18.20;99.90;;;;;;5046241;28;20529;-79
2022/11/08 11:53:56;;;;;;;2.50;1.10;;;18.50;99.90;;;;;;5046140;28;20504;-78
2022/11/08 11:56:42;;;;;;;2.80;1.30;;;18.70;99.90;;;;;;5044442;28;20478;-77
2022/11/08 11:59:32;;;;;;;5.07;1.67;;;18.60;99.90;;;;;;5043777;28;20456;-78
2022/11/08 12:02:28;;;;;;;5.00;1.93;;;18.70;99.90;;;;;;5046991;28;20490;-79
2022/11/08 12:05:13;;;;;;;2.50;1.40;;;18.60;99.90;;;;;;5044348;28;20517;-79
2022/11/08 12:07:46;;;;;;;3.00;1.60;;;18.90;99.90;;;;;;5047310;28;20454;-78
2022/11/08 12:10:22;;;;;;;4.20;1.40;;;19.10;99.90;;;;;;5044751;28;20546;-79
2022/11/08 12:13:01;;;;;;;5.50;1.70;;;18.90;99.90;;;;;;5044442;28;20593;-78
2022/11/08 12:15:37;;;;;;;6.00;1.63;;;19.10;99.90;;;;;;5046626;28;20479;-78
2022/11/08 12:18:31;;;;;;;2.40;1.20;;;19.20;99.90;;;;;;5043515;28;20442;-79
2022/11/08 12:21:06;;;;;;;3.60;1.37;;;19.00;99.90;;;;;;5052255;28;21086;-78
2022/11/08 12:24:00;;;;;;;2.17;1.20;;;18.70;99.90;;;;;;5063093;28;20465;-78
2022/11/08 12:26:32;;;;;;;6.23;1.63;;;18.60;99.90;;;;;;5060749;28;20438;-79
2022/11/08 12:29:15;;;;;;;3.30;1.53;;;18.40;99.90;;;;;;5058853;28;20474;-78
2022/11/08 12:31:50;;;;;;;4.43;1.50;;;18.30;99.90;;;;;;5052904;28;20458;-78
2022/11/08 12:34:26;;;;;;;3.87;1.13;;;18.40;99.90;;;;;;5052738;28;20525;-77
2022/11/08 12:37:15;;;;;;;5.00;1.47;;;18.50;99.90;;;;;;5059474;28;20842;-78
2022/11/08 12:39:45;;;;;;;2.83;1.10;;;18.50;99.90;;;;;;5059167;28;20455;-77
2022/11/08 12:42:40;;;;;;;2.77;1.40;;;18.50;99.90;;;;;;5045691;28;20500;-78
2022/11/08 12:45:24;;;;;;;2.77;1.57;;;18.60;99.90;;;;;;5059267;28;20534;-78
2022/11/08 12:47:56;;;;;;;6.60;1.60;;;18.40;99.90;;;;;;5052093;28;20461;-79
2022/11/08 12:50:31;;;;;;;4.57;1.53;;;18.30;99.90;;;;;;5058369;28;20540;-78
2022/11/08 12:53:37;;;;;;;3.67;1.57;;;17.90;99.90;;;;;;5059440;28;20482;-79
2022/11/08 12:56:11;;;;;;;2.73;1.80;;;17.90;99.90;;;;;;5042918;28;20433;-80
2022/11/08 12:58:42;;;;;;;3.70;1.23;;;17.70;99.90;;;;;;5041112;28;20525;-80
2022/11/08 13:01:12;;;;;;;5.27;1.50;;;17.60;99.90;;;;;;5045506;28;20441;-79
2022/11/08 13:04:17;;;;;;;3.73;1.33;;;17.60;99.90;;;;;;5047888;28;20472;-79
2022/11/08 13:06:49;;;;;;;2.57;1.40;;;17.60;99.90;;;;;;5048345;28;20452;-79
2022/11/08 13:09:27;;;;;;;3.33;1.57;;;17.50;99.90;;;;;;5064195;28;20523;-79
2022/11/08 13:12:04;;;;;;;3.73;1.43;;;17.60;99.90;;;;;;5056500;28;20441;-79
2022/11/08 13:14:32;;;;;;;3.80;1.90;;;17.50;99.90;;;;;;5045636;28;20917;-79
2022/11/08 13:17:30;;;;;;;3.40;1.23;;;17.40;99.90;;;;;;5064346;28;20508;-80
2022/11/08 13:19:59;;;;;;;6.33;1.57;;;17.40;99.90;;;;;;4996701;28;20517;-80
2022/11/08 13:23:06;;;;;;;4.27;1.67;;;17.40;99.90;;;;;;5048494;28;20466;-79
2022/11/08 13:25:43;;;;;;;3.40;1.37;;;17.50;99.90;;;;;;5056240;28;20548;-78